• Join FlightAware (Why Join?)
  • Login
  • US Flag 
03:22AM EDT


 

Airport Tracker/Info


-or-


 

Live Flight TrackerFlight Track Log ✈ TAM3113 ✈ 30-Apr-2012 ✈ SBGR / GRU - SBFL / FLN

Flight Track Log - Related Links

Times and Time Zones

All times are in EDT time to prevent confusion due to time zone crossing. See the TAM3113 flight status page for this flight to view local times or setup timezone preferences in your user account.

Time Position Orientation Groundspeed Altitude Reporting Facility
EDT Latitude Longitude Course Direction KTS MPH feet Rate Location/Type
05:59PM -26.2599 -47.8375 204° Southwest  Level Estimated
06:00PM -26.3223 -47.8685 204° Southwest  Level Estimated
06:01PM -26.3846 -47.8995 204° Southwest  Level Estimated
06:02PM -26.4470 -47.9305 204° Southwest  Level Estimated
06:03PM -26.5093 -47.9616 204° Southwest  Level Estimated
06:04PM -26.5716 -47.9927 204° Southwest  Level Estimated
06:05PM -26.6339 -48.0238 204° Southwest  Level Estimated
06:06PM -26.6962 -48.0550 204° Southwest  Level Estimated
06:07PM -26.7585 -48.0862 204° Southwest  Level Estimated
06:08PM -26.8208 -48.1174 204° Southwest  Level Estimated
06:09PM -26.8831 -48.1486 204° Southwest  Level Estimated
06:10PM -26.9454 -48.1799 204° Southwest  Level Estimated
06:11PM -27.0077 -48.2113 204° Southwest  Level Estimated
06:12PM -27.0699 -48.2426 204° Southwest  Level Estimated
06:13PM -27.1322 -48.2741 204° Southwest  Level Estimated
06:14PM -27.1945 -48.3055 204° Southwest  Level Estimated
06:15PM -27.2567 -48.3370 204° Southwest  Level Estimated
06:16PM -27.3189 -48.3685 204° Southwest  Level Estimated
06:17PM -27.3812 -48.4000 204° Southwest  Level Estimated
06:18PM -27.4434 -48.4316 204° Southwest  Level Estimated
06:19PM -27.5056 -48.4632 204° Southwest  Level Estimated
06:20PM -27.5678 -48.4949 204° Southwest  Level Estimated
06:21PM -27.6300 -48.5266 204° Southwest  Level Estimated
06:22PM -27.6922 -48.5583 24° Northeast  Level Estimated
06:23PM -27.6300 -48.5266 204° Southwest  Level Estimated
06:24PM -27.6922 -48.5583 24° Northeast  Level Estimated
06:25PM -27.6300 -48.5266 204° Southwest  Level Estimated
06:26PM -27.6922 -48.5583 24° Northeast  Level Estimated
06:27PM -27.6300 -48.5266 204° Southwest  Level Estimated
06:28PM -27.6922 -48.5583 24° Northeast  Level Estimated
06:29PM -27.6300 -48.5266 204° Southwest  Level Estimated
06:30PM -27.6922 -48.5583 24° Northeast  Level Estimated
06:31PM -27.6300 -48.5266 204° Southwest  Level Estimated
06:32PM -27.6922 -48.5583 24° Northeast  Level Estimated
06:33PM -27.6300 -48.5266 204° Southwest  Level Estimated
06:34PM -27.6922 -48.5583 24° Northeast  Level Estimated
06:35PM -27.6300 -48.5266 204° Southwest  Level Estimated
06:36PM -27.6922 -48.5583 24° Northeast  Level Estimated
06:37PM -27.6300 -48.5266 24° Northeast  Level Estimated